메인 페이지
METAR-TAF:

METAR-TAF

공항 :

Chicago Rockford International Airport

록퍼드, 일리노이, 미국

위도: 42-11-34N, 경도: 089-05-36W, 고도: 224m

현재 날씨관측

예보는 38분 전, 13:54시(UTC)에 발표되었습니다.
무풍
온도 23°C
습도 57%
기압 1020 hPa
시정: 16.1km
맑음

METAR: KRFD 121354Z 00000KT 10SM CLR 23/14 A3013 RMK AO2 SLP200 T02280144

시각: 09:32 (14:32 UTC)

예보

예보는 3 시간 12분 전, 11:20시(UTC)에 발표되었습니다.
예보 대상 시간: 12일 12시부터 13일 12시까지 (UTC)
kt
시정: 10km
맑음
12일 1500시부터 (UTC)
7kt
시정: 10km
고도 30000ft 상공 구름 조금

TAF: KRFD 121120Z 1212/1312 00000KT P6SM SKC FM121500 10007KT P6SM FEW300

4,000개 이상의 공항 관측 자료 및 예보 (METAR 및 TAF 보고).

지도상에서 검색 가능한 기상관측소가 노란 점과 빨간 점으로 표시되어 있습니다.

기상관측소 명을 보려면 표시 위로 마우스를 이동하세요.

날씨 관측과 예보를 보려면 클릭하세요.

지도 변경 : 확대하려면 엑스 표시가 있는 녹색 버튼, 축소하려면 빼기 표시가 있는 녹색 버튼, 다음 페이지의 지도를 보려면 녹색 화살표를 클릭하세요.


METAR-TAF: